Time;durP1;ratioP1;P1;durP2;ratioP2;P2;SDS_P1;SDS_P2;PMS_P1;PMS_P2;Temp;Humidity;BMP_temperature;BMP_pressure;BME280_temperature;BME280_humidity;BME280_pressure;Samples;Min_cycle;Max_cycle;Signal;HPM_P1;HPM_P2
2022/11/23 00:04:23;;;;;;;8.15;2.30;;;;;;;5.66;100.00;98986.41;20764326;28;20042;-83
2022/11/23 00:14:25;;;;;;;9.30;2.30;;;;;;;5.57;100.00;98973.59;20790712;28;20068;-83
2022/11/23 00:24:26;;;;;;;9.20;2.42;;;;;;;5.45;100.00;98983.34;20788273;28;20050;-84
2022/11/23 00:34:27;;;;;;;12.48;2.10;;;;;;;5.37;100.00;98994.72;20786072;28;20045;-82
2022/11/23 00:44:29;;;;;;;7.43;1.90;;;;;;;5.25;100.00;98997.50;20779309;28;20103;-83
2022/11/23 00:54:30;;;;;;;9.13;2.38;;;;;;;5.18;100.00;99001.09;20783980;28;20112;-83
2022/11/23 01:04:31;;;;;;;10.80;2.25;;;;;;;5.25;100.00;99009.63;20789791;28;20069;-83
2022/11/23 01:14:33;;;;;;;9.25;2.08;;;;;;;5.37;100.00;99010.28;20786963;28;20049;-84
2022/11/23 01:24:34;;;;;;;8.85;2.28;;;;;;;5.47;100.00;99016.19;20774648;28;20096;-83
2022/11/23 01:34:36;;;;;;;8.98;2.20;;;;;;;5.61;100.00;99010.75;20786809;28;20521;-83
2022/11/23 01:44:38;;;;;;;9.90;1.95;;;;;;;5.70;100.00;99009.72;20776937;28;20057;-83
2022/11/23 01:54:39;;;;;;;9.60;2.00;;;;;;;5.85;100.00;99015.50;20779085;28;20437;-83
2022/11/23 02:04:41;;;;;;;6.28;1.63;;;;;;;5.93;100.00;99022.31;20769205;28;20038;-83
2022/11/23 02:14:42;;;;;;;11.13;2.50;;;;;;;6.05;100.00;99014.28;20771924;28;20046;-84
2022/11/23 02:24:44;;;;;;;9.32;1.90;;;;;;;6.11;100.00;99019.34;20772415;28;20107;-83
2022/11/23 02:34:45;;;;;;;8.80;2.15;;;;;;;6.14;100.00;99017.56;20773909;28;20042;-82
2022/11/23 02:44:46;;;;;;;5.43;1.15;;;;;;;6.05;100.00;99004.75;20773998;28;20041;-83
2022/11/23 02:54:48;;;;;;;7.97;1.90;;;;;;;5.89;100.00;99004.16;20774797;28;20092;-83
2022/11/23 03:04:49;;;;;;;7.65;2.10;;;;;;;5.86;100.00;98999.00;20762892;28;20038;-82
2022/11/23 03:14:51;;;;;;;11.27;2.17;;;;;;;5.87;100.00;98992.06;20767462;28;20088;-83
2022/11/23 03:24:52;;;;;;;8.40;2.30;;;;;;;5.80;100.00;98996.53;20766800;28;20050;-82
2022/11/23 03:34:54;;;;;;;8.57;2.00;;;;;;;5.75;100.00;99007.88;20761621;28;20069;-82
2022/11/23 03:44:55;;;;;;;6.00;1.63;;;;;;;5.73;100.00;99002.72;20781488;28;20050;-83
2022/11/23 03:54:56;;;;;;;7.00;1.70;;;;;;;5.83;100.00;98999.06;20775295;28;20080;-83
2022/11/23 04:04:57;;;;;;;8.20;1.58;;;;;;;5.87;100.00;98999.88;20780745;28;20075;-82
2022/11/23 04:14:59;;;;;;;9.85;1.83;;;;;;;5.87;100.00;99011.13;20787920;28;20104;-83
2022/11/23 04:25:00;;;;;;;11.43;2.20;;;;;;;5.87;100.00;98999.88;20781717;28;20042;-83
2022/11/23 04:35:02;;;;;;;7.35;2.00;;;;;;;5.81;100.00;99003.44;20766432;28;20034;-83
2022/11/23 04:45:03;;;;;;;7.80;2.05;;;;;;;5.55;100.00;98997.84;20784856;28;20099;-83
2022/11/23 04:55:04;;;;;;;7.07;1.70;;;;;;;5.40;100.00;98997.25;20790541;28;20092;-83
2022/11/23 05:05:06;;;;;;;8.35;2.05;;;;;;;5.16;100.00;99000.25;20774339;28;20457;-82
2022/11/23 05:15:07;;;;;;;5.03;1.55;;;;;;;4.93;100.00;98997.16;20778223;28;20045;-82
2022/11/23 05:25:08;;;;;;;10.25;2.67;;;;;;;4.78;100.00;98999.13;20771693;28;20046;-82
2022/11/23 05:35:10;;;;;;;7.18;2.05;;;;;;;4.74;100.00;99009.56;20769354;28;20383;-82
2022/11/23 05:45:11;;;;;;;14.57;3.88;;;;;;;4.69;100.00;98993.22;20769126;28;20538;-82
2022/11/23 05:55:13;;;;;;;10.80;2.88;;;;;;;4.47;100.00;99013.41;20775374;28;20045;-81
2022/11/23 06:05:14;;;;;;;8.35;2.78;;;;;;;4.24;100.00;99032.69;20767589;28;20045;-81
2022/11/23 06:15:15;;;;;;;12.40;2.90;;;;;;;4.00;100.00;99025.19;20775491;28;20434;-81
2022/11/23 06:25:17;;;;;;;11.30;4.47;;;;;;;3.82;100.00;99024.50;20769149;28;20081;-82
2022/11/23 06:35:18;;;;;;;8.63;4.35;;;;;;;3.75;100.00;99020.28;20767278;28;20498;-81
2022/11/23 06:45:20;;;;;;;18.95;6.40;;;;;;;3.68;100.00;99034.16;20770165;28;20049;-81
2022/11/23 06:55:22;;;;;;;14.77;5.63;;;;;;;3.47;100.00;99034.38;20778574;28;20046;-82
2022/11/23 07:05:24;;;;;;;14.10;6.20;;;;;;;3.32;100.00;99050.88;20772334;28;20046;-82
2022/11/23 07:15:25;;;;;;;15.18;5.40;;;;;;;3.27;100.00;99044.91;20770089;28;20045;-85
2022/11/23 07:25:26;;;;;;;14.80;5.53;;;;;;;3.24;100.00;99066.47;20771375;28;20104;-84
2022/11/23 07:35:27;;;;;;;12.38;5.70;;;;;;;3.25;100.00;99070.75;20774394;28;20065;-84
2022/11/23 07:45:29;;;;;;;10.13;4.10;;;;;;;3.55;100.00;99071.41;20789931;28;20045;-84
2022/11/23 07:55:30;;;;;;;14.52;3.80;;;;;;;3.82;100.00;99060.75;20790511;28;20069;-84
2022/11/23 08:05:33;;;;;;;11.32;3.95;;;;;;;4.09;100.00;99072.56;20786083;28;20076;-85
2022/11/23 08:15:34;;;;;;;15.80;5.18;;;;;;;4.34;100.00;99065.38;20781273;28;20416;-84
2022/11/23 08:25:36;;;;;;;16.52;4.50;;;;;;;4.76;100.00;99055.34;20763341;28;20050;-84
2022/11/23 08:35:37;;;;;;;15.38;5.68;;;;;;;5.03;100.00;99055.81;20781977;28;20065;-85
2022/11/23 08:45:38;;;;;;;14.35;3.30;;;;;;;5.38;100.00;99061.31;20791691;28;20057;-84
2022/11/23 08:55:40;;;;;;;11.27;3.08;;;;;;;5.88;100.00;99059.56;20783427;28;20120;-84
2022/11/23 09:05:41;;;;;;;11.63;2.70;;;;;;;6.61;100.00;99044.31;20793776;28;20050;-86
2022/11/23 09:15:42;;;;;;;7.28;1.98;;;;;;;6.88;100.00;99045.44;20782921;28;20072;-84
2022/11/23 09:25:47;;;;;;;8.30;2.30;;;;;;;6.92;100.00;99041.88;20783780;28;20096;-83
2022/11/23 09:35:48;;;;;;;9.57;2.03;;;;;;;6.97;100.00;99053.94;20770911;28;20034;-83
2022/11/23 09:45:50;;;;;;;9.25;1.85;;;;;;;7.20;100.00;99047.31;20788537;28;20076;-83
2022/11/23 09:55:51;;;;;;;8.43;1.90;;;;;;;7.55;100.00;99050.78;20773677;28;20046;-84
2022/11/23 10:05:52;;;;;;;6.22;1.58;;;;;;;7.84;100.00;99042.22;20784460;28;20038;-85
2022/11/23 10:15:54;;;;;;;6.32;1.30;;;;;;;8.07;100.00;99035.56;20789276;28;20103;-85
2022/11/23 10:25:55;;;;;;;8.45;2.28;;;;;;;8.27;100.00;99038.44;20778841;28;20073;-84
2022/11/23 10:35:57;;;;;;;8.52;1.83;;;;;;;8.47;100.00;99030.94;20790668;28;20053;-82
2022/11/23 10:45:58;;;;;;;7.82;1.55;;;;;;;8.57;100.00;99015.00;20785299;28;20068;-82
2022/11/23 10:56:02;;;;;;;7.72;2.00;;;;;;;8.67;100.00;99011.22;20785259;28;20050;-82
2022/11/23 11:06:04;;;;;;;9.15;1.67;;;;;;;8.87;100.00;98988.00;20775360;28;20096;-82
2022/11/23 11:16:11;;;;;;;5.32;1.35;;;;;;;8.95;100.00;98983.38;20812116;28;20149;-82
2022/11/23 11:26:12;;;;;;;7.47;1.85;;;;;;;9.09;100.00;98967.28;20786274;28;20042;-82
2022/11/23 11:36:14;;;;;;;9.48;2.13;;;;;;;9.22;100.00;98954.66;20810182;28;20079;-82
2022/11/23 11:46:15;;;;;;;6.43;1.40;;;;;;;9.28;100.00;98941.41;20792737;28;20076;-84
2022/11/23 11:56:35;;;;;;;9.45;1.58;;;;;;;9.42;100.00;98933.94;20786470;28;20049;-83
2022/11/23 12:06:37;;;;;;;10.57;1.77;;;;;;;9.53;100.00;98938.78;20768862;28;20065;-82
2022/11/23 12:16:38;;;;;;;6.55;1.90;;;;;;;9.60;100.00;98937.69;20788852;28;20246;-83
2022/11/23 12:26:40;;;;;;;10.13;2.00;;;;;;;9.66;100.00;98915.69;20791982;28;20042;-83
2022/11/23 12:36:41;;;;;;;6.57;1.40;;;;;;;9.58;100.00;98887.25;20794625;28;20041;-83
2022/11/23 12:46:42;;;;;;;9.00;1.40;;;;;;;9.73;100.00;98891.06;20787933;28;20068;-82
2022/11/23 12:56:44;;;;;;;7.10;1.42;;;;;;;9.74;100.00;98883.16;20790094;28;20530;-82
2022/11/23 13:06:45;;;;;;;6.40;1.35;;;;;;;9.65;100.00;98872.19;20780255;28;20103;-83
2022/11/23 13:17:06;;;;;;;7.00;1.95;;;;;;;9.45;100.00;98854.63;20684728;23;20051;-68
2022/11/23 13:27:08;;;;;;;8.00;1.90;;;;;;;9.38;100.00;98840.91;20572454;28;20081;-67
2022/11/23 13:37:09;;;;;;;6.20;1.52;;;;;;;9.40;100.00;98836.50;20571042;28;20046;-67
2022/11/23 13:47:16;;;;;;;4.93;1.35;;;;;;;9.39;100.00;98824.34;20570604;28;20093;-70
2022/11/23 13:57:17;;;;;;;9.70;3.90;;;;;;;9.50;100.00;98805.69;20569163;28;20141;-67
2022/11/23 14:07:19;;;;;;;9.60;1.88;;;;;;;9.43;100.00;98791.13;20566877;28;20051;-67
2022/11/23 14:17:20;;;;;;;6.70;2.47;;;;;;;9.19;100.00;98771.97;20570163;28;20047;-68
2022/11/23 14:27:21;;;;;;;10.02;2.30;;;;;;;8.94;100.00;98765.00;20567107;28;20073;-68
2022/11/23 14:37:42;;;;;;;8.18;2.80;;;;;;;8.81;100.00;98758.50;20565181;28;20126;-68
2022/11/23 14:47:44;;;;;;;18.13;5.43;;;;;;;8.65;100.00;98757.34;20564666;28;20053;-67
2022/11/23 14:57:46;;;;;;;10.30;2.22;;;;;;;8.42;100.00;98772.00;20564505;28;20614;-68
2022/11/23 15:07:47;;;;;;;10.50;2.53;;;;;;;8.41;100.00;98769.47;20563671;28;20101;-69
2022/11/23 15:17:48;;;;;;;9.32;2.25;;;;;;;8.21;100.00;98770.94;20602158;28;20079;-69
2022/11/23 15:27:50;;;;;;;6.95;2.20;;;;;;;8.00;100.00;98783.78;20564190;28;20125;-69
2022/11/23 15:37:51;;;;;;;7.50;1.80;;;;;;;7.82;100.00;98791.28;20562731;28;20051;-69
2022/11/23 15:47:52;;;;;;;10.48;3.08;;;;;;;7.94;100.00;98808.28;20577314;28;20070;-69
2022/11/23 15:57:54;;;;;;;12.50;4.78;;;;;;;7.95;100.00;98834.31;20577197;28;20046;-68
2022/11/23 16:07:58;;;;;;;22.05;9.63;;;;;;;8.05;100.00;98862.69;20575794;28;20074;-69
2022/11/23 16:18:00;;;;;;;12.67;5.30;;;;;;;8.07;100.00;98881.75;20579172;28;20050;-71
2022/11/23 16:28:01;;;;;;;8.57;3.97;;;;;;;8.09;100.00;98892.97;20574877;28;20062;-73
2022/11/23 16:38:03;;;;;;;9.77;4.38;;;;;;;8.09;100.00;98927.72;20574700;28;20067;-73
2022/11/23 16:48:05;;;;;;;12.07;3.38;;;;;;;7.92;100.00;98917.78;20575277;28;20074;-73
2022/11/23 16:58:06;;;;;;;10.15;2.72;;;;;;;7.78;100.00;98938.19;20572874;28;20042;-73
2022/11/23 17:08:09;;;;;;;10.15;4.07;;;;;;;7.66;100.00;98947.16;20580730;28;20046;-71
2022/11/23 17:18:10;;;;;;;9.23;3.58;;;;;;;7.59;100.00;98965.63;20573601;28;20055;-71
2022/11/23 17:28:12;;;;;;;8.50;2.50;;;;;;;7.52;100.00;98997.91;20570639;28;20642;-70
2022/11/23 17:38:13;;;;;;;8.90;3.05;;;;;;;7.56;100.00;98992.59;20569405;28;20459;-71
2022/11/23 17:48:15;;;;;;;8.40;3.28;;;;;;;7.41;100.00;99014.69;20566529;28;20542;-71
2022/11/23 17:58:16;;;;;;;7.78;3.17;;;;;;;7.40;100.00;99020.78;20566376;28;20050;-71
2022/11/23 18:08:18;;;;;;;9.52;3.90;;;;;;;7.43;100.00;99033.75;20564416;28;20077;-71
2022/11/23 18:18:19;;;;;;;7.38;2.95;;;;;;;7.32;100.00;99051.34;20569531;28;20120;-71
2022/11/23 18:28:20;;;;;;;8.75;3.40;;;;;;;7.25;100.00;99077.59;20604294;28;20077;-71
2022/11/23 18:38:30;;;;;;;7.13;2.50;;;;;;;7.35;100.00;99105.97;21012856;27;20938;-70
2022/11/23 18:48:31;;;;;;;7.97;2.35;;;;;;;7.26;100.00;99118.34;20955383;28;20106;-70
2022/11/23 18:58:32;;;;;;;6.25;2.60;;;;;;;7.26;100.00;99142.63;20959492;28;20485;-70
2022/11/23 19:08:34;;;;;;;7.68;3.47;;;;;;;7.31;100.00;99152.94;20951328;28;20049;-70
2022/11/23 19:18:35;;;;;;;11.30;4.07;;;;;;;7.25;100.00;99179.97;20959709;28;20055;-70
2022/11/23 19:28:37;;;;;;;8.40;4.22;;;;;;;7.34;100.00;99202.34;20950177;28;20555;-72
2022/11/23 19:38:38;;;;;;;9.85;5.15;;;;;;;7.40;100.00;99228.25;20943650;28;20065;-70
2022/11/23 19:48:41;;;;;;;9.65;4.72;;;;;;;7.50;100.00;99261.00;20895347;28;20090;-70
2022/11/23 19:58:42;;;;;;;10.60;4.60;;;;;;;7.52;100.00;99293.13;20887293;28;20075;-69
2022/11/23 20:08:44;;;;;;;12.25;5.10;;;;;;;7.65;100.00;99317.13;20892324;28;20048;-70
2022/11/23 20:18:46;;;;;;;9.40;4.10;;;;;;;7.67;100.00;99336.22;20888542;28;20048;-70
2022/11/23 20:28:47;;;;;;;9.95;3.08;;;;;;;7.57;100.00;99361.59;20882328;28;20061;-71
2022/11/23 20:38:52;;;;;;;9.50;3.05;;;;;;;7.48;100.00;99390.44;20891433;28;20464;-70
2022/11/23 20:48:56;;;;;;;12.13;3.63;;;;;;;7.39;100.00;99411.44;20898313;28;20045;-71
2022/11/23 20:59:03;;;;;;;16.00;3.47;;;;;;;7.34;100.00;99437.56;20879033;28;20056;-71
2022/11/23 21:09:05;;;;;;;14.60;3.38;;;;;;;7.43;100.00;99449.56;20883203;28;20501;-70
2022/11/23 21:19:06;;;;;;;10.40;2.97;;;;;;;7.57;100.00;99477.94;20890616;28;20052;-70
2022/11/23 21:29:09;;;;;;;11.73;3.25;;;;;;;7.63;100.00;99470.88;20890195;28;20041;-70
2022/11/23 21:39:11;;;;;;;9.95;3.22;;;;;;;7.71;100.00;99491.56;20886561;28;20048;-71
2022/11/23 21:49:12;;;;;;;10.90;3.15;;;;;;;7.75;100.00;99492.38;20892089;28;20049;-70
2022/11/23 21:59:14;;;;;;;14.50;3.17;;;;;;;7.86;100.00;99527.78;20887178;28;20520;-71
2022/11/23 22:09:15;;;;;;;12.65;3.40;;;;;;;7.94;100.00;99536.28;20892782;28;20049;-70
2022/11/23 22:19:17;;;;;;;11.85;3.40;;;;;;;7.98;100.00;99550.13;20918980;28;20052;-70
2022/11/23 22:29:19;;;;;;;9.40;3.20;;;;;;;7.81;100.00;99560.00;20974417;28;20405;-70
2022/11/23 22:39:20;;;;;;;10.68;3.08;;;;;;;7.54;100.00;99566.56;20974499;28;20053;-70
2022/11/23 22:49:21;;;;;;;13.15;3.20;;;;;;;7.55;100.00;99583.91;20974426;28;20405;-70
2022/11/23 22:59:23;;;;;;;10.90;3.30;;;;;;;7.60;100.00;99597.72;20973981;28;20059;-71
2022/11/23 23:09:24;;;;;;;15.90;3.85;;;;;;;7.58;100.00;99618.59;20897723;28;20083;-70
2022/11/23 23:19:25;;;;;;;16.20;3.33;;;;;;;7.63;100.00;99629.78;20928470;28;20552;-69
2022/11/23 23:29:27;;;;;;;14.80;2.90;;;;;;;7.78;100.00;99638.25;20997051;28;20051;-70
2022/11/23 23:39:28;;;;;;;18.55;3.40;;;;;;;7.60;100.00;99640.25;20995797;28;20127;-69
2022/11/23 23:49:30;;;;;;;15.75;2.88;;;;;;;7.64;100.00;99661.91;20995338;28;20040;-69
2022/11/23 23:59:31;;;;;;;12.10;3.17;;;;;;;7.58;100.00;99662.88;20994905;28;20048;-70
